createdAt,value
2022-10-29T00:00:50.934Z,97384.75
2022-10-29T00:03:19.376Z,97392.22
2022-10-29T00:05:56.780Z,97382.44
2022-10-29T00:08:26.287Z,97385.25
2022-10-29T00:10:54.162Z,97382.94
2022-10-29T00:13:22.092Z,97373.16
2022-10-29T00:15:50.126Z,97369.78
2022-10-29T00:18:18.059Z,97371.94
2022-10-29T00:20:45.968Z,97366.88
2022-10-29T00:23:13.855Z,97366.25
2022-10-29T00:25:43.446Z,97372.75
2022-10-29T00:28:11.385Z,97370.59
2022-10-29T00:30:39.318Z,97376.25
2022-10-29T00:33:07.318Z,97366.38
2022-10-29T00:35:35.302Z,97356.69
2022-10-29T00:38:03.230Z,97366.84
2022-10-29T00:40:31.255Z,97360.09
2022-10-29T00:43:14.578Z,97356.59
2022-10-29T00:45:47.521Z,97369.13
2022-10-29T00:48:15.588Z,97369.75
2022-10-29T00:50:44.337Z,97377.19
2022-10-29T00:53:12.456Z,97380.44
2022-10-29T00:55:40.724Z,97379.59
2022-10-29T00:58:11.157Z,97366.56
2022-10-29T01:00:40.449Z,97369.97
2022-10-29T01:03:08.487Z,97367.31
2022-10-29T01:05:37.667Z,97379.59
2022-10-29T01:08:06.622Z,97371.88
2022-10-29T01:10:50.061Z,97370.66
2022-10-29T01:13:33.027Z,97362.84
2022-10-29T01:16:10.475Z,97359.47
2022-10-29T01:18:46.785Z,97354.03
2022-10-29T01:21:43.502Z,97351.50
2022-10-29T01:28:04.514Z,97348.25
2022-10-29T01:31:06.544Z,97356.47
2022-10-29T01:33:42.074Z,97357.06
2022-10-29T01:36:21.011Z,97350.41
2022-10-29T01:38:54.661Z,97367.31
2022-10-29T01:41:31.082Z,97363.19
2022-10-29T01:44:08.362Z,97352.44
2022-10-29T01:46:44.194Z,97337.41
2022-10-29T01:49:16.953Z,97333.78
2022-10-29T01:51:47.526Z,97339.31
2022-10-29T01:54:15.420Z,97335.94
2022-10-29T01:56:43.343Z,97340.50
2022-10-29T01:59:23.278Z,97335.31
2022-10-29T02:02:12.372Z,97326.63
2022-10-29T02:04:56.463Z,97328.94
2022-10-29T02:07:36.441Z,97328.72
2022-10-29T02:10:14.757Z,97321.94
2022-10-29T02:12:48.428Z,97317.47
2022-10-29T02:15:21.510Z,97310.16
2022-10-29T02:17:51.237Z,97309.19
2022-10-29T02:20:19.570Z,97308.09
2022-10-29T02:22:47.518Z,97309.56
2022-10-29T02:25:15.515Z,97308.72
2022-10-29T02:27:43.513Z,97311.38
2022-10-29T02:30:11.781Z,97308.97
2022-10-29T02:32:39.682Z,97303.53
2022-10-29T02:35:10.005Z,97313.06
2022-10-29T02:37:38.395Z,97304.16
2022-10-29T02:40:08.123Z,97304.88
2022-10-29T02:42:38.309Z,97300.28
2022-10-29T02:45:06.899Z,97295.84
2022-10-29T02:47:35.026Z,97296.69
2022-10-29T02:50:03.003Z,97293.91
2022-10-29T02:52:32.385Z,97291.13
2022-10-29T02:55:00.356Z,97293.78
2022-10-29T02:57:28.305Z,97288.22
2022-10-29T02:59:56.442Z,97283.78
2022-10-29T03:02:24.423Z,97283.78
2022-10-29T03:04:52.534Z,97284.63
2022-10-29T03:07:20.522Z,97295.00
2022-10-29T03:09:49.788Z,97294.16
2022-10-29T03:12:17.959Z,97293.78
2022-10-29T03:14:46.829Z,97291.47
2022-10-29T03:17:15.483Z,97289.91
2022-10-29T03:19:43.402Z,97289.19
2022-10-29T03:22:11.356Z,97291.63
2022-10-29T03:24:39.255Z,97290.66
2022-10-29T03:27:08.563Z,97285.44
2022-10-29T03:29:36.558Z,97283.88
2022-10-29T03:32:04.429Z,97285.81
2022-10-29T03:34:33.452Z,97290.16
2022-10-29T03:37:02.378Z,97285.59
2022-10-29T03:39:30.505Z,97285.34
2022-10-29T03:41:58.458Z,97274.97
2022-10-29T03:44:27.857Z,97284.59
2022-10-29T03:46:56.361Z,97281.13
2022-10-29T03:49:24.418Z,97282.22
2022-10-29T03:51:53.771Z,97282.22
2022-10-29T03:54:22.238Z,97280.50
2022-10-29T03:56:50.537Z,97282.22
2022-10-29T03:59:18.550Z,97284.13
2022-10-29T04:01:47.903Z,97282.44
2022-10-29T04:04:16.046Z,97282.44
2022-10-29T04:06:45.148Z,97287.03
2022-10-29T04:09:13.138Z,97277.84
2022-10-29T04:11:41.201Z,97285.81
2022-10-29T04:14:09.336Z,97284.22
2022-10-29T04:16:39.490Z,97286.16
2022-10-29T04:19:08.919Z,97279.91
2022-10-29T04:30:02.511Z,97286.03
2022-10-29T04:32:30.555Z,97278.78
2022-10-29T04:34:59.853Z,97284.22
2022-10-29T04:37:29.635Z,97277.13
2022-10-29T04:39:57.518Z,97287.47
2022-10-29T04:42:25.548Z,97294.31
2022-10-29T04:44:53.591Z,97292.88
2022-10-29T04:47:21.653Z,97279.50
2022-10-29T04:49:51.622Z,97285.53
2022-10-29T04:52:20.965Z,97281.75
2022-10-29T04:54:49.025Z,97285.75
2022-10-29T04:57:19.642Z,97283.53
2022-10-29T04:59:49.071Z,97288.00
2022-10-29T05:02:17.009Z,97290.03
2022-10-29T05:04:45.021Z,97282.28
2022-10-29T05:07:12.916Z,97281.69
2022-10-29T05:09:42.304Z,97290.56
2022-10-29T05:12:10.867Z,97288.25
2022-10-29T05:14:38.774Z,97284.91
2022-10-29T05:19:35.962Z,97281.75
2022-10-29T05:22:03.915Z,97286.44
2022-10-29T05:24:31.826Z,97283.16
2022-10-29T05:27:02.292Z,97292.91
2022-10-29T05:29:30.185Z,97283.16
2022-10-29T05:31:58.265Z,97275.44
2022-10-29T05:34:26.359Z,97275.44
2022-10-29T05:36:54.598Z,97280.47
2022-10-29T05:39:22.631Z,97278.66
2022-10-29T05:41:50.599Z,97274.44
2022-10-29T05:44:19.945Z,97274.66
2022-10-29T05:46:49.901Z,97267.91
2022-10-29T05:49:17.821Z,97269.16
2022-10-29T05:51:45.770Z,97272.75
2022-10-29T05:54:13.803Z,97268.28
2022-10-29T05:56:42.012Z,97274.56
2022-10-29T05:59:10.468Z,97273.91
2022-10-29T06:01:40.162Z,97283.16
2022-10-29T06:04:08.194Z,97281.59
2022-10-29T06:06:36.250Z,97288.91
2022-10-29T06:09:05.328Z,97291.44
2022-10-29T06:11:33.827Z,97293.09
2022-10-29T06:14:02.028Z,97285.34
2022-10-29T06:16:30.200Z,97297.63
2022-10-29T06:18:59.571Z,97288.22
2022-10-29T06:21:27.685Z,97292.56
2022-10-29T06:23:55.835Z,97293.66
2022-10-29T06:26:23.832Z,97295.56
2022-10-29T06:28:52.150Z,97294.81
2022-10-29T06:31:20.207Z,97293.00
2022-10-29T06:33:48.203Z,97294.69
2022-10-29T06:36:17.632Z,97291.53
2022-10-29T06:38:45.553Z,97293.22
2022-10-29T06:41:14.020Z,97296.63
2022-10-29T06:43:42.058Z,97292.25
2022-10-29T06:46:10.218Z,97290.88
2022-10-29T06:48:38.710Z,97294.34
2022-10-29T06:51:07.663Z,97298.28
2022-10-29T06:53:39.778Z,97290.34
2022-10-29T06:56:10.924Z,97294.47
2022-10-29T06:58:39.907Z,97294.47
2022-10-29T07:01:09.180Z,97298.56
2022-10-29T07:03:37.262Z,97296.47
2022-10-29T07:06:05.841Z,97289.25
2022-10-29T07:08:34.212Z,97293.16
2022-10-29T07:11:04.465Z,97286.78
2022-10-29T07:13:32.923Z,97294.16
2022-10-29T07:16:03.548Z,97285.88
2022-10-29T07:18:33.889Z,97290.09
2022-10-29T07:21:03.838Z,97298.44
2022-10-29T07:23:32.077Z,97299.91
2022-10-29T07:26:00.051Z,97298.84
2022-10-29T07:28:29.654Z,97303.56
2022-10-29T07:31:02.017Z,97308.53
2022-10-29T07:33:34.196Z,97294.19
2022-10-29T07:36:05.041Z,97301.69
2022-10-29T07:38:35.518Z,97306.44
2022-10-29T07:41:04.295Z,97309.34
2022-10-29T07:43:33.867Z,97315.88
2022-10-29T07:46:01.956Z,97311.59
2022-10-29T07:48:30.169Z,97312.91
2022-10-29T07:50:59.398Z,97311.22
2022-10-29T07:53:27.838Z,97317.78
2022-10-29T07:55:56.544Z,97311.25
2022-10-29T07:58:25.126Z,97318.50
2022-10-29T08:00:54.937Z,97322.38
2022-10-29T08:03:25.102Z,97315.41
2022-10-29T08:05:56.628Z,97315.53
2022-10-29T08:08:28.065Z,97309.72
2022-10-29T08:11:05.125Z,97316.59
2022-10-29T08:13:37.850Z,97314.19
2022-10-29T08:16:10.939Z,97308.84
2022-10-29T08:18:42.995Z,97314.06
2022-10-29T08:21:16.203Z,97308.00
2022-10-29T08:23:50.096Z,97307.97
2022-10-29T08:26:21.844Z,97302.97
2022-10-29T08:28:53.523Z,97308.41
2022-10-29T08:31:28.500Z,97305.94
2022-10-29T08:33:58.840Z,97303.50
2022-10-29T08:36:28.444Z,97307.56
2022-10-29T08:38:58.325Z,97309.47
2022-10-29T08:41:45.161Z,97307.25
2022-10-29T08:44:47.590Z,97298.66
2022-10-29T08:47:20.777Z,97306.97
2022-10-29T08:50:01.943Z,97299.78
2022-10-29T08:52:32.179Z,97294.91
2022-10-29T08:55:07.687Z,97302.22
2022-10-29T08:57:42.935Z,97298.66
2022-10-29T09:00:17.007Z,97298.97
2022-10-29T09:02:47.083Z,97294.81
2022-10-29T09:05:16.550Z,97293.75
2022-10-29T09:08:02.471Z,97300.25
2022-10-29T09:10:41.444Z,97296.47
2022-10-29T09:13:28.084Z,97309.81
2022-10-29T09:16:19.145Z,97305.94
2022-10-29T09:19:02.456Z,97300.31
2022-10-29T09:21:34.938Z,97297.84
2022-10-29T09:24:14.452Z,97294.47
2022-10-29T09:26:53.392Z,97288.34
2022-10-29T09:29:45.892Z,97292.84
2022-10-29T09:32:19.259Z,97295.22
2022-10-29T09:34:51.564Z,97291.72
2022-10-29T09:37:25.004Z,97286.31
2022-10-29T09:39:55.235Z,97286.44
2022-10-29T09:42:38.043Z,97285.28
2022-10-29T09:45:09.420Z,97286.56
2022-10-29T09:47:44.663Z,97288.81
2022-10-29T09:50:20.793Z,97279.56
2022-10-29T09:52:50.343Z,97276.88
2022-10-29T09:55:24.450Z,97281.06
2022-10-29T09:57:53.717Z,97281.91
2022-10-29T10:00:24.967Z,97281.59
2022-10-29T10:02:59.767Z,97283.53
2022-10-29T10:05:31.595Z,97282.38
2022-10-29T10:08:08.702Z,97283.78
2022-10-29T10:10:51.113Z,97275.03
2022-10-29T10:13:21.854Z,97280.22
2022-10-29T10:15:56.165Z,97281.44
2022-10-29T10:18:26.650Z,97283.22
2022-10-29T10:21:05.393Z,97280.91
2022-10-29T10:23:45.772Z,97271.78
2022-10-29T10:26:32.105Z,97267.06
2022-10-29T10:29:12.031Z,97271.53
2022-10-29T10:31:40.406Z,97265.59
2022-10-29T10:34:17.881Z,97266.81
2022-10-29T10:36:50.027Z,97262.88
2022-10-29T10:39:25.747Z,97256.75
2022-10-29T10:41:53.836Z,97260.50
2022-10-29T10:44:24.047Z,97256.69
2022-10-29T10:46:55.442Z,97255.94
2022-10-29T10:49:31.631Z,97256.41
2022-10-29T10:52:03.212Z,97247.91
2022-10-29T10:54:36.962Z,97246.84
2022-10-29T10:57:17.872Z,97244.16
2022-10-29T10:59:54.248Z,97245.78
2022-10-29T11:02:30.616Z,97239.63
2022-10-29T11:05:07.791Z,97245.44
2022-10-29T11:07:41.557Z,97245.88
2022-10-29T11:10:15.143Z,97242.72
2022-10-29T11:12:47.749Z,97238.91
2022-10-29T11:15:21.301Z,97231.22
2022-10-29T11:17:54.992Z,97223.72
2022-10-29T11:20:27.177Z,97223.72
2022-10-29T11:23:09.796Z,97219.47
2022-10-29T11:25:42.728Z,97223.03
2022-10-29T11:28:24.753Z,97223.50
2022-10-29T11:31:01.069Z,97215.72
2022-10-29T11:33:38.523Z,97218.28
2022-10-29T11:36:15.116Z,97218.63
2022-10-29T11:38:49.841Z,97213.59
2022-10-29T11:41:26.846Z,97207.63
2022-10-29T11:43:55.744Z,97209.13
2022-10-29T11:46:33.926Z,97205.13
2022-10-29T11:49:16.803Z,97201.97
2022-10-29T11:52:00.448Z,97200.94
2022-10-29T11:54:45.524Z,97197.28
2022-10-29T11:57:18.506Z,97194.63
2022-10-29T12:00:02.999Z,97183.72
2022-10-29T12:03:15.543Z,97179.22
2022-10-29T12:05:51.854Z,97181.75
2022-10-29T12:08:38.471Z,97177.56
2022-10-29T12:11:20.954Z,97178.56
2022-10-29T12:13:58.892Z,97163.81
2022-10-29T12:16:35.038Z,97172.69
2022-10-29T12:19:14.100Z,97158.94
2022-10-29T12:21:49.979Z,97150.88
2022-10-29T12:24:30.583Z,97149.72
2022-10-29T12:27:07.353Z,97146.53
2022-10-29T12:29:47.358Z,97151.38
2022-10-29T12:32:24.077Z,97152.75
2022-10-29T12:35:02.809Z,97148.72
2022-10-29T12:37:41.929Z,97142.69
2022-10-29T12:40:17.773Z,97147.25
2022-10-29T12:42:48.562Z,97145.38
2022-10-29T12:45:31.111Z,97142.19
2022-10-29T12:48:10.190Z,97136.34
2022-10-29T12:50:55.445Z,97137.69
2022-10-29T12:53:32.102Z,97133.16
2022-10-29T12:56:00.049Z,97141.03
2022-10-29T12:58:50.224Z,97134.16
2022-10-29T13:02:10.566Z,97136.00
2022-10-29T13:04:37.464Z,97130.78
2022-10-29T13:07:23.177Z,97126.25
2022-10-29T13:10:31.116Z,97128.75
2022-10-29T13:13:05.443Z,97125.56
2022-10-29T13:15:38.366Z,97117.69
2022-10-29T13:18:20.205Z,97115.16
2022-10-29T13:20:50.008Z,97107.78
2022-10-29T13:23:34.934Z,97115.16
2022-10-29T13:26:04.165Z,97115.00
2022-10-29T13:28:53.230Z,97105.94
2022-10-29T13:31:54.404Z,97103.41
2022-10-29T13:34:50.622Z,97105.41
2022-10-29T13:37:40.659Z,97103.88
2022-10-29T13:40:46.247Z,97094.69
2022-10-29T13:43:19.375Z,97086.44
2022-10-29T13:45:52.985Z,97083.94
2022-10-29T13:48:29.649Z,97080.72
2022-10-29T13:50:59.955Z,97087.91
2022-10-29T13:53:38.266Z,97087.41
2022-10-29T13:56:11.121Z,97080.53
2022-10-29T13:58:44.334Z,97080.69
2022-10-29T14:01:18.417Z,97087.88
2022-10-29T14:03:59.027Z,97085.72
2022-10-29T14:06:32.310Z,97091.38
2022-10-29T14:09:12.349Z,97081.84
2022-10-29T14:11:42.711Z,97084.00
2022-10-29T14:14:27.735Z,97085.72
2022-10-29T14:17:11.574Z,97083.22
2022-10-29T14:19:44.607Z,97079.66
2022-10-29T14:22:36.453Z,97080.69
2022-10-29T14:25:28.049Z,97081.72
2022-10-29T14:28:15.965Z,97075.53
2022-10-29T14:30:44.163Z,97077.38
2022-10-29T14:33:19.976Z,97064.63
2022-10-29T14:35:49.655Z,97074.84
2022-10-29T14:38:18.241Z,97068.81
2022-10-29T14:40:47.872Z,97071.84
2022-10-29T14:43:25.166Z,97068.84
2022-10-29T14:45:53.412Z,97080.94
2022-10-29T14:48:21.459Z,97078.78
2022-10-29T14:50:56.570Z,97078.25
2022-10-29T14:53:30.689Z,97078.63
2022-10-29T14:56:00.972Z,97079.97
2022-10-29T14:58:31.752Z,97072.59
2022-10-29T15:01:02.335Z,97076.63
2022-10-29T15:03:34.184Z,97072.59
2022-10-29T15:06:16.005Z,97066.88
2022-10-29T15:08:45.846Z,97076.28
2022-10-29T15:11:35.652Z,97071.41
2022-10-29T15:14:05.465Z,97070.09
2022-10-29T15:16:38.176Z,97067.91
2022-10-29T15:19:16.417Z,97066.72
2022-10-29T15:21:46.295Z,97066.25
2022-10-29T15:24:20.783Z,97062.22
2022-10-29T15:26:51.503Z,97065.41
2022-10-29T15:29:29.143Z,97058.88
2022-10-29T15:32:00.529Z,97065.56
2022-10-29T15:34:33.066Z,97063.88
2022-10-29T15:37:16.504Z,97062.72
2022-10-29T15:40:02.236Z,97060.88
2022-10-29T15:42:33.066Z,97051.16
2022-10-29T15:45:14.510Z,97061.19
2022-10-29T15:47:44.388Z,97054.81
2022-10-29T15:50:14.258Z,97062.53
2022-10-29T15:52:45.957Z,97055.09
2022-10-29T15:55:26.589Z,97059.78
2022-10-29T15:57:57.745Z,97059.63
2022-10-29T16:00:25.901Z,97062.09
2022-10-29T16:02:58.736Z,97050.00
2022-10-29T16:05:26.896Z,97057.69
2022-10-29T16:07:56.260Z,97052.47
2022-10-29T16:10:24.224Z,97052.63
2022-10-29T16:12:52.227Z,97055.63
2022-10-29T16:15:21.328Z,97051.56
2022-10-29T16:17:49.366Z,97058.03
2022-10-29T16:20:20.161Z,97057.88
2022-10-29T16:22:49.997Z,97056.78
2022-10-29T16:25:23.791Z,97056.44
2022-10-29T16:27:51.816Z,97054.84
2022-10-29T16:30:20.113Z,97058.97
2022-10-29T16:32:50.144Z,97054.44
2022-10-29T16:35:21.689Z,97053.22
2022-10-29T16:37:52.300Z,97053.16
2022-10-29T16:40:23.439Z,97058.00
2022-10-29T16:42:51.777Z,97052.25
2022-10-29T16:45:23.936Z,97060.78
2022-10-29T16:47:52.973Z,97052.81
2022-10-29T16:50:23.911Z,97055.13
2022-10-29T16:52:58.380Z,97058.94
2022-10-29T16:55:28.397Z,97057.38
2022-10-29T16:57:56.773Z,97061.16
2022-10-29T17:00:25.955Z,97057.03
2022-10-29T17:02:54.293Z,97059.03
2022-10-29T17:05:22.868Z,97057.38
2022-10-29T17:07:54.408Z,97056.66
2022-10-29T17:10:22.825Z,97059.09
2022-10-29T17:12:52.194Z,97059.53
2022-10-29T17:15:20.885Z,97059.47
2022-10-29T17:17:49.006Z,97064.41
2022-10-29T17:20:17.035Z,97058.84
2022-10-29T17:22:45.135Z,97067.28
2022-10-29T17:25:13.585Z,97069.59
2022-10-29T17:27:42.046Z,97063.94
2022-10-29T17:30:12.628Z,97062.53
2022-10-29T17:32:40.583Z,97062.53
2022-10-29T17:35:09.067Z,97072.00
2022-10-29T17:37:37.266Z,97070.31
2022-10-29T17:40:08.069Z,97071.63
2022-10-29T17:42:37.129Z,97074.72
2022-10-29T17:45:05.664Z,97079.06
2022-10-29T17:47:35.098Z,97077.53
2022-10-29T17:50:03.081Z,97072.66
2022-10-29T17:52:31.029Z,97069.84
2022-10-29T17:54:59.078Z,97070.66
2022-10-29T17:57:27.028Z,97064.78
2022-10-29T17:59:55.119Z,97070.09
2022-10-29T18:02:23.659Z,97067.59
2022-10-29T18:04:53.206Z,97072.25
2022-10-29T18:07:21.302Z,97072.56
2022-10-29T18:09:49.433Z,97067.66
2022-10-29T18:12:19.875Z,97071.91
2022-10-29T18:14:47.836Z,97069.69
2022-10-29T18:17:15.688Z,97066.31
2022-10-29T18:19:43.692Z,97069.69
2022-10-29T18:22:12.945Z,97066.31
2022-10-29T18:24:40.860Z,97074.31
2022-10-29T18:27:08.901Z,97068.41
2022-10-29T18:29:36.829Z,97067.88
2022-10-29T18:32:05.853Z,97083.19
2022-10-29T18:34:34.408Z,97068.16
2022-10-29T18:37:02.634Z,97076.47
2022-10-29T18:39:31.969Z,97073.94
2022-10-29T18:42:00.075Z,97078.44
2022-10-29T18:44:28.666Z,97080.38
2022-10-29T18:46:56.672Z,97073.69
2022-10-29T18:49:24.609Z,97075.22
2022-10-29T18:51:54.574Z,97077.31
2022-10-29T18:54:22.585Z,97075.34
2022-10-29T18:56:51.912Z,97081.81
2022-10-29T18:59:19.850Z,97076.63
2022-10-29T19:01:47.979Z,97074.78
2022-10-29T19:04:16.634Z,97075.09
2022-10-29T19:06:45.039Z,97080.41
2022-10-29T19:09:13.322Z,97071.72
2022-10-29T19:11:41.310Z,97076.34
2022-10-29T19:14:14.121Z,97074.56
2022-10-29T19:16:42.172Z,97068.34
2022-10-29T19:19:12.991Z,97076.50
2022-10-29T19:21:43.053Z,97070.63
2022-10-29T19:24:14.845Z,97076.94
2022-10-29T19:26:43.211Z,97070.91
2022-10-29T19:29:13.186Z,97078.22
2022-10-29T19:31:41.666Z,97083.13
2022-10-29T19:34:10.039Z,97077.53
2022-10-29T19:36:39.979Z,97079.63
2022-10-29T19:39:08.861Z,97081.88
2022-10-29T19:41:36.906Z,97082.16
2022-10-29T19:44:05.510Z,97082.59
2022-10-29T19:46:34.810Z,97076.56
2022-10-29T19:49:03.831Z,97079.09
2022-10-29T19:51:31.948Z,97083.31
2022-10-29T19:54:02.066Z,97083.31
2022-10-29T19:56:30.212Z,97083.72
2022-10-29T19:58:58.164Z,97084.97
2022-10-29T20:01:26.378Z,97082.03
2022-10-29T20:03:55.892Z,97081.19
2022-10-29T20:06:24.224Z,97080.19
2022-10-29T20:08:52.267Z,97084.97
2022-10-29T20:11:20.499Z,97074.03
2022-10-29T20:13:48.493Z,97080.78
2022-10-29T20:16:18.711Z,97079.34
2022-10-29T20:18:46.885Z,97082.97
2022-10-29T20:21:16.863Z,97085.94
2022-10-29T20:23:45.535Z,97080.47
2022-10-29T20:26:13.635Z,97088.06
2022-10-29T20:28:41.680Z,97080.91
2022-10-29T20:31:29.999Z,97078.66
2022-10-29T20:34:00.306Z,97077.81
2022-10-29T20:36:32.187Z,97079.66
2022-10-29T20:39:00.620Z,97076.53
2022-10-29T20:41:29.118Z,97082.50
2022-10-29T20:43:58.565Z,97078.44
2022-10-29T20:46:26.913Z,97083.50
2022-10-29T20:48:55.121Z,97083.75
2022-10-29T20:51:23.866Z,97077.16
2022-10-29T20:53:54.493Z,97078.00
2022-10-29T20:56:24.305Z,97080.53
2022-10-29T20:58:52.423Z,97089.22
2022-10-29T21:01:22.875Z,97085.44
2022-10-29T21:03:51.397Z,97084.84
2022-10-29T21:06:20.194Z,97088.91
2022-10-29T21:08:48.510Z,97092.94
2022-10-29T21:11:19.536Z,97086.22
2022-10-29T21:13:47.967Z,97096.41
2022-10-29T21:16:18.558Z,97094.00
2022-10-29T21:18:47.922Z,97096.34
2022-10-29T21:21:16.613Z,97098.19
2022-10-29T21:23:45.217Z,97103.38
2022-10-29T21:26:14.714Z,97102.06
2022-10-29T21:28:44.570Z,97104.03
2022-10-29T21:31:12.849Z,97096.44
2022-10-29T21:33:41.242Z,97092.25
2022-10-29T21:36:11.100Z,97101.06
2022-10-29T21:38:39.022Z,97100.59
2022-10-29T21:41:07.194Z,97099.06
2022-10-29T21:43:35.422Z,97103.53
2022-10-29T21:46:04.839Z,97101.88
2022-10-29T21:48:33.757Z,97104.78
2022-10-29T21:51:03.823Z,97093.31
2022-10-29T21:53:31.875Z,97104.38
2022-10-29T21:56:00.947Z,97102.00
2022-10-29T21:58:29.350Z,97097.66
2022-10-29T22:01:09.593Z,97102.25
2022-10-29T22:03:40.481Z,97102.78
2022-10-29T22:06:11.545Z,97095.78
2022-10-29T22:08:39.864Z,97097.72
2022-10-29T22:11:08.142Z,97099.69
2022-10-29T22:13:37.055Z,97098.84
2022-10-29T22:16:08.595Z,97091.13
2022-10-29T22:18:37.253Z,97091.00
2022-10-29T22:21:07.989Z,97087.75
2022-10-29T22:23:37.924Z,97095.59
2022-10-29T22:26:06.047Z,97091.25
2022-10-29T22:28:34.077Z,97092.22
2022-10-29T22:31:04.216Z,97089.31
2022-10-29T22:33:34.589Z,97091.59
2022-10-29T22:36:08.838Z,97091.44
2022-10-29T22:38:37.217Z,97085.41
2022-10-29T22:41:06.638Z,97084.28
2022-10-29T22:43:34.719Z,97080.69
2022-10-29T22:46:02.829Z,97079.84
2022-10-29T22:48:30.792Z,97080.81
2022-10-29T22:51:05.429Z,97082.63
2022-10-29T22:53:34.160Z,97071.41
2022-10-29T22:56:02.602Z,97071.69
2022-10-29T22:58:30.783Z,97077.00
2022-10-29T23:01:03.162Z,97083.53
2022-10-29T23:03:31.179Z,97073.06
2022-10-29T23:05:59.206Z,97073.63
2022-10-29T23:08:29.208Z,97076.28
2022-10-29T23:10:57.091Z,97067.34
2022-10-29T23:13:25.421Z,97072.38
2022-10-29T23:15:54.314Z,97076.19
2022-10-29T23:18:22.368Z,97072.28
2022-10-29T23:20:50.325Z,97070.72
2022-10-29T23:23:18.293Z,97076.16
2022-10-29T23:25:47.986Z,97078.81
2022-10-29T23:28:15.851Z,97074.34
2022-10-29T23:30:43.766Z,97066.91
2022-10-29T23:33:11.647Z,97071.13
2022-10-29T23:35:39.546Z,97076.56
2022-10-29T23:38:07.502Z,97075.38
2022-10-29T23:40:35.512Z,97071.44
2022-10-29T23:43:04.869Z,97068.31
2022-10-29T23:45:32.880Z,97075.56
2022-10-29T23:48:01.939Z,97078.75
2022-10-29T23:50:29.894Z,97063.91
2022-10-29T23:52:58.081Z,97073.44
2022-10-29T23:55:26.091Z,97065.59
2022-10-29T23:57:54.209Z,97057.63
